sensor_id;sensor_type;location;lat;lon;timestamp;pressure;altitude;pressure_sealevel;temperature;humidity
18500;BME280;9379;52.134;11.576;2023-12-04T00:02:11;101404.69;;;-0.05;90.85
18500;BME280;9379;52.134;11.576;2023-12-04T00:04:38;101411.53;;;-0.01;92.17
18500;BME280;9379;52.134;11.576;2023-12-04T00:07:05;101413.59;;;-0.10;91.71
18500;BME280;9379;52.134;11.576;2023-12-04T00:09:32;101416.81;;;0.26;91.45
18500;BME280;9379;52.134;11.576;2023-12-04T00:11:58;101408.28;;;0.19;91.52
18500;BME280;9379;52.134;11.576;2023-12-04T00:14:25;101402.53;;;0.36;90.46
18500;BME280;9379;52.134;11.576;2023-12-04T00:16:52;101402.47;;;0.38;90.68
18500;BME280;9379;52.134;11.576;2023-12-04T00:19:20;101393.69;;;0.14;91.45
18500;BME280;9379;52.134;11.576;2023-12-04T00:21:47;101384.13;;;0.13;91.40
18500;BME280;9379;52.134;11.576;2023-12-04T00:24:15;101386.47;;;0.20;91.91
18500;BME280;9379;52.134;11.576;2023-12-04T00:26:41;101388.69;;;0.33;91.05
18500;BME280;9379;52.134;11.576;2023-12-04T00:29:08;101395.63;;;0.07;92.07
18500;BME280;9379;52.134;11.576;2023-12-04T00:31:35;101390.91;;;0.18;91.42
18500;BME280;9379;52.134;11.576;2023-12-04T00:34:02;101392.16;;;0.33;90.87
18500;BME280;9379;52.134;11.576;2023-12-04T00:36:30;101390.94;;;0.17;91.49
18500;BME280;9379;52.134;11.576;2023-12-04T00:38:57;101392.09;;;0.35;91.55
18500;BME280;9379;52.134;11.576;2023-12-04T00:41:24;101388.22;;;0.46;90.95
18500;BME280;9379;52.134;11.576;2023-12-04T00:43:51;101388.38;;;0.42;91.34
18500;BME280;9379;52.134;11.576;2023-12-04T00:46:17;101393.06;;;0.32;91.27
18500;BME280;9379;52.134;11.576;2023-12-04T00:48:44;101386.47;;;0.20;91.40
18500;BME280;9379;52.134;11.576;2023-12-04T00:51:12;101388.50;;;0.12;91.85
18500;BME280;9379;52.134;11.576;2023-12-04T00:53:40;101386.09;;;-0.22;92.95
18500;BME280;9379;52.134;11.576;2023-12-04T00:56:08;101376.16;;;-0.11;93.10
18500;BME280;9379;52.134;11.576;2023-12-04T00:58:35;101380.38;;;-0.07;93.12
18500;BME280;9379;52.134;11.576;2023-12-04T01:01:02;101371.09;;;0.11;91.97
18500;BME280;9379;52.134;11.576;2023-12-04T01:03:29;101372.31;;;0.01;93.20
18500;BME280;9379;52.134;11.576;2023-12-04T01:05:58;101369.78;;;-0.02;93.40
18500;BME280;9379;52.134;11.576;2023-12-04T01:08:25;101363.81;;;-0.06;93.33
18500;BME280;9379;52.134;11.576;2023-12-04T01:10:53;101364.97;;;0.39;91.89
18500;BME280;9379;52.134;11.576;2023-12-04T01:13:20;101359.63;;;0.67;90.69
18500;BME280;9379;52.134;11.576;2023-12-04T01:15:47;101353.53;;;0.66;89.97
18500;BME280;9379;52.134;11.576;2023-12-04T01:18:14;101348.03;;;0.74;89.75
18500;BME280;9379;52.134;11.576;2023-12-04T01:20:42;101348.22;;;0.18;91.17
18500;BME280;9379;52.134;11.576;2023-12-04T01:23:09;101344.16;;;0.09;91.17
18500;BME280;9379;52.134;11.576;2023-12-04T01:25:36;101340.44;;;0.16;91.86
18500;BME280;9379;52.134;11.576;2023-12-04T01:28:04;101344.06;;;0.12;92.45
18500;BME280;9379;52.134;11.576;2023-12-04T01:30:31;101344.06;;;0.12;91.68
18500;BME280;9379;52.134;11.576;2023-12-04T01:32:58;101341.03;;;-0.02;92.07
18500;BME280;9379;52.134;11.576;2023-12-04T01:35:25;101339.41;;;0.20;91.40
18500;BME280;9379;52.134;11.576;2023-12-04T01:37:52;101338.63;;;0.18;91.56
18500;BME280;9379;52.134;11.576;2023-12-04T01:40:19;101333.03;;;0.29;90.72
18500;BME280;9379;52.134;11.576;2023-12-04T01:42:46;101329.25;;;0.13;90.70
18500;BME280;9379;52.134;11.576;2023-12-04T01:45:14;101334.06;;;0.25;90.89
18500;BME280;9379;52.134;11.576;2023-12-04T01:47:41;101333.28;;;0.48;90.46
18500;BME280;9379;52.134;11.576;2023-12-04T01:50:09;101338.81;;;0.39;90.08
18500;BME280;9379;52.134;11.576;2023-12-04T01:52:36;101335.72;;;0.27;89.90
18500;BME280;9379;52.134;11.576;2023-12-04T01:55:05;101336.13;;;0.65;90.08
18500;BME280;9379;52.134;11.576;2023-12-04T01:57:32;101332.09;;;0.80;89.00
18500;BME280;9379;52.134;11.576;2023-12-04T01:59:59;101336.97;;;0.91;88.43
18500;BME280;9379;52.134;11.576;2023-12-04T02:02:28;101330.91;;;0.65;88.23
18500;BME280;9379;52.134;11.576;2023-12-04T02:04:55;101321.53;;;0.60;89.32
18500;BME280;9379;52.134;11.576;2023-12-04T02:07:23;101318.00;;;0.61;89.19
18500;BME280;9379;52.134;11.576;2023-12-04T02:09:50;101318.06;;;0.59;89.59
18500;BME280;9379;52.134;11.576;2023-12-04T02:12:17;101320.00;;;0.77;89.00
18500;BME280;9379;52.134;11.576;2023-12-04T02:14:44;101323.38;;;0.31;89.99
18500;BME280;9379;52.134;11.576;2023-12-04T02:17:12;101311.00;;;0.61;89.23
18500;BME280;9379;52.134;11.576;2023-12-04T02:19:40;101311.31;;;0.77;88.44
18500;BME280;9379;52.134;11.576;2023-12-04T02:22:07;101298.84;;;1.07;87.61
18500;BME280;9379;52.134;11.576;2023-12-04T02:24:36;101308.09;;;0.69;88.10
18500;BME280;9379;52.134;11.576;2023-12-04T02:27:08;101297.94;;;1.08;86.68
18500;BME280;9379;52.134;11.576;2023-12-04T02:29:39;101289.50;;;1.23;87.39
18500;BME280;9379;52.134;11.576;2023-12-04T02:32:10;101288.34;;;0.85;88.10
18500;BME280;9379;52.134;11.576;2023-12-04T02:34:40;101284.88;;;1.30;86.28
18500;BME280;9379;52.134;11.576;2023-12-04T02:37:08;101286.16;;;0.73;87.18
18500;BME280;9379;52.134;11.576;2023-12-04T02:39:37;101282.69;;;0.49;88.66
18500;BME280;9379;52.134;11.576;2023-12-04T02:42:04;101278.75;;;0.61;87.69
18500;BME280;9379;52.134;11.576;2023-12-04T02:44:32;101274.78;;;0.97;87.62
18500;BME280;9379;52.134;11.576;2023-12-04T02:46:59;101266.09;;;0.73;87.52
18500;BME280;9379;52.134;11.576;2023-12-04T02:49:26;101264.97;;;0.55;87.50
18500;BME280;9379;52.134;11.576;2023-12-04T02:51:53;101258.50;;;0.66;88.34
18500;BME280;9379;52.134;11.576;2023-12-04T02:54:20;101256.44;;;0.27;88.75
18500;BME280;9379;52.134;11.576;2023-12-04T02:56:48;101253.31;;;0.41;89.25
18500;BME280;9379;52.134;11.576;2023-12-04T02:59:15;101250.03;;;0.36;88.97
18500;BME280;9379;52.134;11.576;2023-12-04T03:01:42;101262.69;;;0.46;88.82
18500;BME280;9379;52.134;11.576;2023-12-04T03:04:09;101262.50;;;0.03;89.92
18500;BME280;9379;52.134;11.576;2023-12-04T03:06:36;101258.69;;;0.11;90.01
18500;BME280;9379;52.134;11.576;2023-12-04T03:09:03;101259.09;;;0.01;89.98
18500;BME280;9379;52.134;11.576;2023-12-04T03:11:30;101257.09;;;-0.18;90.53
18500;BME280;9379;52.134;11.576;2023-12-04T03:14:00;101262.16;;;-0.13;91.40
18500;BME280;9379;52.134;11.576;2023-12-04T03:16:27;101253.75;;;0.28;90.16
18500;BME280;9379;52.134;11.576;2023-12-04T03:18:54;101252.91;;;-0.23;90.60
18500;BME280;9379;52.134;11.576;2023-12-04T03:21:20;101242.44;;;0.28;89.89
18500;BME280;9379;52.134;11.576;2023-12-04T03:23:47;101237.84;;;0.60;89.41
18500;BME280;9379;52.134;11.576;2023-12-04T03:26:14;101232.84;;;0.28;88.95
18500;BME280;9379;52.134;11.576;2023-12-04T03:28:41;101241.28;;;0.12;89.04
18500;BME280;9379;52.134;11.576;2023-12-04T03:31:09;101235.19;;;0.11;88.86
18500;BME280;9379;52.134;11.576;2023-12-04T03:33:36;101236.59;;;-0.30;89.78
18500;BME280;9379;52.134;11.576;2023-12-04T03:36:04;101232.06;;;0.26;89.50
18500;BME280;9379;52.134;11.576;2023-12-04T03:38:31;101222.16;;;0.35;88.50
18500;BME280;9379;52.134;11.576;2023-12-04T03:40:58;101227.13;;;0.42;88.16
18500;BME280;9379;52.134;11.576;2023-12-04T03:43:25;101224.50;;;0.66;88.33
18500;BME280;9379;52.134;11.576;2023-12-04T03:45:52;101223.38;;;0.49;88.03
18500;BME280;9379;52.134;11.576;2023-12-04T03:48:20;101223.13;;;0.32;88.34
18500;BME280;9379;52.134;11.576;2023-12-04T03:50:47;101213.88;;;0.23;88.56
18500;BME280;9379;52.134;11.576;2023-12-04T03:53:14;101217.97;;;0.06;89.46
18500;BME280;9379;52.134;11.576;2023-12-04T03:55:41;101216.88;;;0.11;88.92
18500;BME280;9379;52.134;11.576;2023-12-04T03:58:09;101218.69;;;-0.16;89.93
18500;BME280;9379;52.134;11.576;2023-12-04T04:00:36;101217.91;;;0.07;90.06
18500;BME280;9379;52.134;11.576;2023-12-04T04:03:06;101211.03;;;-0.20;90.93
18500;BME280;9379;52.134;11.576;2023-12-04T04:05:34;101208.19;;;-0.14;90.80
18500;BME280;9379;52.134;11.576;2023-12-04T04:08:01;101209.31;;;-0.21;90.82
18500;BME280;9379;52.134;11.576;2023-12-04T04:10:28;101204.78;;;0.09;91.19
18500;BME280;9379;52.134;11.576;2023-12-04T04:12:55;101206.00;;;0.00;90.15
18500;BME280;9379;52.134;11.576;2023-12-04T04:15:22;101212.44;;;-0.10;90.94
18500;BME280;9379;52.134;11.576;2023-12-04T04:17:49;101202.94;;;0.12;90.19
18500;BME280;9379;52.134;11.576;2023-12-04T04:20:16;101207.22;;;-0.12;91.16
18500;BME280;9379;52.134;11.576;2023-12-04T04:22:44;101208.75;;;-0.05;90.84
18500;BME280;9379;52.134;11.576;2023-12-04T04:25:12;101204.22;;;0.01;91.09
18500;BME280;9379;52.134;11.576;2023-12-04T04:27:39;101210.72;;;-0.11;90.81
18500;BME280;9379;52.134;11.576;2023-12-04T04:30:06;101208.38;;;-0.19;91.21
18500;BME280;9379;52.134;11.576;2023-12-04T04:35:47;101181.88;;;-0.08;90.91
18500;BME280;9379;52.134;11.576;2023-12-04T04:38:15;101183.09;;;0.07;90.82
18500;BME280;9379;52.134;11.576;2023-12-04T04:40:42;101174.13;;;0.14;89.87
18500;BME280;9379;52.134;11.576;2023-12-04T04:43:10;101174.53;;;0.26;89.83
18500;BME280;9379;52.134;11.576;2023-12-04T04:45:37;101168.88;;;0.39;88.62
18500;BME280;9379;52.134;11.576;2023-12-04T04:48:04;101165.88;;;0.01;90.13
18500;BME280;9379;52.134;11.576;2023-12-04T04:50:31;101159.34;;;-0.11;91.40
18500;BME280;9379;52.134;11.576;2023-12-04T04:52:58;101165.97;;;-0.02;90.96
18500;BME280;9379;52.134;11.576;2023-12-04T04:55:26;101160.56;;;-0.21;91.59
18500;BME280;9379;52.134;11.576;2023-12-04T04:57:53;101165.88;;;0.01;90.45
18500;BME280;9379;52.134;11.576;2023-12-04T05:00:20;101156.38;;;0.23;89.84
18500;BME280;9379;52.134;11.576;2023-12-04T05:02:47;101157.88;;;0.29;89.61
18500;BME280;9379;52.134;11.576;2023-12-04T05:05:14;101143.69;;;0.36;89.63
18500;BME280;9379;52.134;11.576;2023-12-04T05:07:41;101145.09;;;0.45;88.55
18500;BME280;9379;52.134;11.576;2023-12-04T05:10:08;101156.97;;;0.53;88.82
18500;BME280;9379;52.134;11.576;2023-12-04T05:12:36;101132.66;;;0.73;89.04
18500;BME280;9379;52.134;11.576;2023-12-04T05:15:04;101133.94;;;0.63;88.37
18500;BME280;9379;52.134;11.576;2023-12-04T05:17:32;101130.31;;;0.44;88.15
18500;BME280;9379;52.134;11.576;2023-12-04T05:19:58;101132.06;;;0.43;88.72
18500;BME280;9379;52.134;11.576;2023-12-04T05:22:25;101128.66;;;0.18;89.11
18500;BME280;9379;52.134;11.576;2023-12-04T05:24:52;101130.84;;;0.30;89.48
18500;BME280;9379;52.134;11.576;2023-12-04T05:27:19;101112.03;;;0.20;88.94
18500;BME280;9379;52.134;11.576;2023-12-04T05:29:47;101123.84;;;0.31;89.66
18500;BME280;9379;52.134;11.576;2023-12-04T05:32:14;101133.00;;;0.19;90.08
18500;BME280;9379;52.134;11.576;2023-12-04T05:34:41;101126.91;;;0.18;90.28
18500;BME280;9379;52.134;11.576;2023-12-04T05:37:08;101114.97;;;0.35;89.85
18500;BME280;9379;52.134;11.576;2023-12-04T05:39:35;101119.47;;;0.08;90.40
18500;BME280;9379;52.134;11.576;2023-12-04T05:42:02;101115.97;;;0.54;89.45
18500;BME280;9379;52.134;11.576;2023-12-04T05:44:29;101104.91;;;0.47;88.81
18500;BME280;9379;52.134;11.576;2023-12-04T05:46:57;101105.59;;;0.74;88.38
18500;BME280;9379;52.134;11.576;2023-12-04T05:49:24;101098.41;;;0.57;88.15
18500;BME280;9379;52.134;11.576;2023-12-04T05:51:51;101104.63;;;0.08;90.66
18500;BME280;9379;52.134;11.576;2023-12-04T05:54:18;101095.94;;;0.31;90.24
18500;BME280;9379;52.134;11.576;2023-12-04T05:56:44;101105.63;;;0.51;90.00
18500;BME280;9379;52.134;11.576;2023-12-04T05:59:12;101103.13;;;0.26;90.29
18500;BME280;9379;52.134;11.576;2023-12-04T06:01:39;101094.09;;;0.33;90.61
18500;BME280;9379;52.134;11.576;2023-12-04T06:04:07;101095.50;;;0.65;90.08
18500;BME280;9379;52.134;11.576;2023-12-04T06:06:34;101097.88;;;0.26;90.31
18500;BME280;9379;52.134;11.576;2023-12-04T06:09:01;101088.09;;;0.31;90.31
18500;BME280;9379;52.134;11.576;2023-12-04T06:11:28;101082.03;;;0.07;91.83
18500;BME280;9379;52.134;11.576;2023-12-04T06:13:54;101077.66;;;0.08;91.66
18500;BME280;9379;52.134;11.576;2023-12-04T06:16:21;101068.81;;;0.34;90.67
18500;BME280;9379;52.134;11.576;2023-12-04T06:18:48;101084.97;;;0.21;91.23
18500;BME280;9379;52.134;11.576;2023-12-04T06:21:16;101082.53;;;0.40;90.62
18500;BME280;9379;52.134;11.576;2023-12-04T06:23:44;101080.25;;;0.08;91.02
18500;BME280;9379;52.134;11.576;2023-12-04T06:26:12;101072.59;;;0.26;91.17
18500;BME280;9379;52.134;11.576;2023-12-04T06:28:39;101058.94;;;0.42;90.49
18500;BME280;9379;52.134;11.576;2023-12-04T06:31:07;101066.53;;;0.48;90.70
18500;BME280;9379;52.134;11.576;2023-12-04T06:33:35;101063.50;;;0.37;90.70
18500;BME280;9379;52.134;11.576;2023-12-04T06:36:03;101062.53;;;0.39;90.10
18500;BME280;9379;52.134;11.576;2023-12-04T06:38:33;101058.44;;;0.54;89.45
18500;BME280;9379;52.134;11.576;2023-12-04T06:41:05;101068.22;;;0.27;90.55
18500;BME280;9379;52.134;11.576;2023-12-04T06:43:32;101056.88;;;0.50;89.79
18500;BME280;9379;52.134;11.576;2023-12-04T06:46:00;101063.50;;;0.37;90.50
18500;BME280;9379;52.134;11.576;2023-12-04T06:48:27;101058.84;;;-0.02;91.89
18500;BME280;9379;52.134;11.576;2023-12-04T06:50:54;101057.19;;;-0.05;91.70
18500;BME280;9379;52.134;11.576;2023-12-04T06:53:21;101052.22;;;-0.11;92.74
18500;BME280;9379;52.134;11.576;2023-12-04T06:55:49;101063.53;;;0.13;91.65
18500;BME280;9379;52.134;11.576;2023-12-04T06:58:16;101057.16;;;0.42;90.55
18500;BME280;9379;52.134;11.576;2023-12-04T07:00:43;101057.66;;;0.52;89.73
18500;BME280;9379;52.134;11.576;2023-12-04T07:03:10;101046.25;;;0.31;91.11
18500;BME280;9379;52.134;11.576;2023-12-04T07:05:37;101050.41;;;-0.09;92.14
18500;BME280;9379;52.134;11.576;2023-12-04T07:08:04;101044.66;;;0.05;91.82
18500;BME280;9379;52.134;11.576;2023-12-04T07:10:31;101047.00;;;0.13;91.27
18500;BME280;9379;52.134;11.576;2023-12-04T07:12:59;101035.16;;;0.48;90.69
18500;BME280;9379;52.134;11.576;2023-12-04T07:15:26;101041.19;;;0.05;90.60
18500;BME280;9379;52.134;11.576;2023-12-04T07:17:53;101046.88;;;-0.08;91.43
18500;BME280;9379;52.134;11.576;2023-12-04T07:20:20;101046.22;;;0.09;91.61
18500;BME280;9379;52.134;11.576;2023-12-04T07:22:49;101058.34;;;0.12;91.70
18500;BME280;9379;52.134;11.576;2023-12-04T07:25:16;101047.66;;;-0.06;91.77
18500;BME280;9379;52.134;11.576;2023-12-04T07:27:43;101046.16;;;0.56;90.56
18500;BME280;9379;52.134;11.576;2023-12-04T07:30:12;101042.38;;;0.41;90.00
18500;BME280;9379;52.134;11.576;2023-12-04T07:32:39;101045.44;;;0.52;88.98
18500;BME280;9379;52.134;11.576;2023-12-04T07:35:07;101045.53;;;0.27;90.05
18500;BME280;9379;52.134;11.576;2023-12-04T07:37:34;101042.06;;;0.27;90.40
18500;BME280;9379;52.134;11.576;2023-12-04T07:40:01;101048.16;;;0.27;90.20
18500;BME280;9379;52.134;11.576;2023-12-04T07:42:31;101041.34;;;0.23;89.98
18500;BME280;9379;52.134;11.576;2023-12-04T07:44:58;101037.22;;;0.40;90.20
18500;BME280;9379;52.134;11.576;2023-12-04T07:47:26;101034.81;;;0.35;90.83
18500;BME280;9379;52.134;11.576;2023-12-04T07:49:53;101043.28;;;0.18;90.48
18500;BME280;9379;52.134;11.576;2023-12-04T07:52:19;101042.69;;;0.10;91.00
18500;BME280;9379;52.134;11.576;2023-12-04T07:54:48;101047.19;;;0.30;91.30
18500;BME280;9379;52.134;11.576;2023-12-04T07:57:15;101049.72;;;0.32;90.48
18500;BME280;9379;52.134;11.576;2023-12-04T07:59:42;101041.31;;;0.47;89.70
18500;BME280;9379;52.134;11.576;2023-12-04T08:02:10;101038.03;;;0.18;90.10
18500;BME280;9379;52.134;11.576;2023-12-04T08:04:38;101038.72;;;0.45;89.73
18500;BME280;9379;52.134;11.576;2023-12-04T08:07:05;101039.22;;;0.55;89.27
18500;BME280;9379;52.134;11.576;2023-12-04T08:09:33;101049.53;;;0.60;89.38
18500;BME280;9379;52.134;11.576;2023-12-04T08:12:00;101039.50;;;0.69;89.11
18500;BME280;9379;52.134;11.576;2023-12-04T08:14:27;101042.25;;;0.66;88.50
18500;BME280;9379;52.134;11.576;2023-12-04T08:16:54;101034.66;;;0.82;88.01
18500;BME280;9379;52.134;11.576;2023-12-04T08:19:20;101045.31;;;0.55;88.84
18500;BME280;9379;52.134;11.576;2023-12-04T08:21:49;101043.22;;;0.42;89.08
18500;BME280;9379;52.134;11.576;2023-12-04T08:24:16;101034.84;;;0.55;89.54
18500;BME280;9379;52.134;11.576;2023-12-04T08:26:44;101036.75;;;0.52;88.63
18500;BME280;9379;52.134;11.576;2023-12-04T08:29:30;101033.94;;;0.56;89.10
18500;BME280;9379;52.134;11.576;2023-12-04T08:31:57;101030.53;;;0.54;88.89
18500;BME280;9379;52.134;11.576;2023-12-04T08:34:24;101029.88;;;0.71;87.51
18500;BME280;9379;52.134;11.576;2023-12-04T08:36:53;101039.22;;;0.55;87.78
18500;BME280;9379;52.134;11.576;2023-12-04T08:39:19;101027.13;;;0.74;87.87
18500;BME280;9379;52.134;11.576;2023-12-04T08:41:47;101032.34;;;0.74;87.17
18500;BME280;9379;52.134;11.576;2023-12-04T08:44:14;101032.41;;;0.73;87.32
18500;BME280;9379;52.134;11.576;2023-12-04T08:46:42;101024.31;;;0.57;87.22
18500;BME280;9379;52.134;11.576;2023-12-04T08:49:09;101033.56;;;0.66;87.75
18500;BME280;9379;52.134;11.576;2023-12-04T08:51:36;101028.19;;;0.69;87.83
18500;BME280;9379;52.134;11.576;2023-12-04T08:54:04;101024.66;;;0.49;88.27
18500;BME280;9379;52.134;11.576;2023-12-04T08:56:31;101019.28;;;0.74;87.04
18500;BME280;9379;52.134;11.576;2023-12-04T08:58:58;101023.03;;;1.09;86.41
18500;BME280;9379;52.134;11.576;2023-12-04T09:01:25;101022.38;;;0.84;87.04
18500;BME280;9379;52.134;11.576;2023-12-04T09:03:52;101012.63;;;1.08;86.82
18500;BME280;9379;52.134;11.576;2023-12-04T09:06:18;101010.88;;;1.08;86.37
18500;BME280;9379;52.134;11.576;2023-12-04T09:08:45;101015.97;;;1.11;86.98
18500;BME280;9379;52.134;11.576;2023-12-04T09:11:14;101011.50;;;1.13;86.06
18500;BME280;9379;52.134;11.576;2023-12-04T09:13:41;101010.22;;;1.24;86.14
18500;BME280;9379;52.134;11.576;2023-12-04T09:16:08;101006.28;;;1.13;85.75
18500;BME280;9379;52.134;11.576;2023-12-04T09:18:35;101012.94;;;1.80;84.97
18500;BME280;9379;52.134;11.576;2023-12-04T09:21:02;101011.97;;;1.43;85.02
18500;BME280;9379;52.134;11.576;2023-12-04T09:23:29;101018.59;;;1.11;85.28
18500;BME280;9379;52.134;11.576;2023-12-04T09:25:57;101016.97;;;1.29;85.51
18500;BME280;9379;52.134;11.576;2023-12-04T09:28:25;101006.78;;;0.81;85.83
18500;BME280;9379;52.134;11.576;2023-12-04T09:30:52;101008.19;;;1.10;86.10
18500;BME280;9379;52.134;11.576;2023-12-04T09:33:19;101012.75;;;1.25;85.17
18500;BME280;9379;52.134;11.576;2023-12-04T09:35:46;100999.28;;;1.34;85.13
18500;BME280;9379;52.134;11.576;2023-12-04T09:38:12;100998.34;;;1.15;85.12
18500;BME280;9379;52.134;11.576;2023-12-04T09:40:39;101007.44;;;0.86;85.92
18500;BME280;9379;52.134;11.576;2023-12-04T09:43:06;100998.94;;;1.01;86.12
18500;BME280;9379;52.134;11.576;2023-12-04T09:45:35;100999.28;;;0.94;85.75
18500;BME280;9379;52.134;11.576;2023-12-04T09:48:02;101004.47;;;0.95;86.12
18500;BME280;9379;52.134;11.576;2023-12-04T09:50:29;100998.19;;;1.20;85.27
18500;BME280;9379;52.134;11.576;2023-12-04T09:52:59;100997.38;;;0.97;85.63
18500;BME280;9379;52.134;11.576;2023-12-04T09:55:27;100983.69;;;0.70;86.28
18500;BME280;9379;52.134;11.576;2023-12-04T09:57:54;100985.06;;;0.79;86.28
18500;BME280;9379;52.134;11.576;2023-12-04T10:00:23;100975.16;;;0.65;86.86
18500;BME280;9379;52.134;11.576;2023-12-04T10:02:52;100970.63;;;1.11;85.74
18500;BME280;9379;52.134;11.576;2023-12-04T10:05:19;100969.84;;;0.88;85.92
18500;BME280;9379;52.134;11.576;2023-12-04T10:07:46;100959.38;;;0.88;85.58
18500;BME280;9379;52.134;11.576;2023-12-04T10:10:13;100958.25;;;1.14;85.56
18500;BME280;9379;52.134;11.576;2023-12-04T10:12:40;100953.91;;;1.34;84.75
18500;BME280;9379;52.134;11.576;2023-12-04T10:15:10;100952.84;;;0.99;85.43
18500;BME280;9379;52.134;11.576;2023-12-04T10:17:39;100949.22;;;1.22;85.01
18500;BME280;9379;52.134;11.576;2023-12-04T10:20:09;100959.47;;;1.26;85.29
18500;BME280;9379;52.134;11.576;2023-12-04T10:22:53;100958.28;;;1.33;85.08
18500;BME280;9379;52.134;11.576;2023-12-04T10:25:20;100950.81;;;1.05;85.05
18500;BME280;9379;52.134;11.576;2023-12-04T10:27:48;100947.28;;;1.45;84.61
18500;BME280;9379;52.134;11.576;2023-12-04T10:30:26;100943.13;;;1.21;85.03
18500;BME280;9379;52.134;11.576;2023-12-04T10:32:57;100932.22;;;1.88;83.23
18500;BME280;9379;52.134;11.576;2023-12-04T10:35:28;100930.44;;;1.89;83.35
18500;BME280;9379;52.134;11.576;2023-12-04T10:37:56;100936.34;;;1.75;83.04
18500;BME280;9379;52.134;11.576;2023-12-04T10:40:24;100926.56;;;1.79;82.49
18500;BME280;9379;52.134;11.576;2023-12-04T10:43:10;100930.97;;;1.39;84.00
18500;BME280;9379;52.134;11.576;2023-12-04T10:45:37;100923.44;;;1.52;83.79
18500;BME280;9379;52.134;11.576;2023-12-04T10:48:05;100919.34;;;1.65;83.94
18500;BME280;9379;52.134;11.576;2023-12-04T10:50:35;100912.97;;;1.52;83.32
18500;BME280;9379;52.134;11.576;2023-12-04T10:53:03;100916.28;;;1.55;83.23
18500;BME280;9379;52.134;11.576;2023-12-04T10:55:30;100905.25;;;1.67;83.25
18500;BME280;9379;52.134;11.576;2023-12-04T10:57:59;100909.31;;;1.73;83.87
18500;BME280;9379;52.134;11.576;2023-12-04T11:00:27;100905.44;;;2.00;82.49
18500;BME280;9379;52.134;11.576;2023-12-04T11:02:55;100903.94;;;1.95;82.10
18500;BME280;9379;52.134;11.576;2023-12-04T11:05:25;100901.78;;;1.86;82.08
18500;BME280;9379;52.134;11.576;2023-12-04T11:07:56;100892.63;;;1.75;82.27
18500;BME280;9379;52.134;11.576;2023-12-04T11:10:26;100895.03;;;2.16;81.99
18500;BME280;9379;52.134;11.576;2023-12-04T11:13:00;100892.00;;;1.70;82.27
18500;BME280;9379;52.134;11.576;2023-12-04T11:15:29;100887.41;;;1.75;82.31
18500;BME280;9379;52.134;11.576;2023-12-04T11:17:59;100888.38;;;1.73;81.70
18500;BME280;9379;52.134;11.576;2023-12-04T11:20:29;100885.13;;;1.49;82.23
18500;BME280;9379;52.134;11.576;2023-12-04T11:23:00;100878.88;;;1.89;81.45
18500;BME280;9379;52.134;11.576;2023-12-04T11:25:28;100881.78;;;1.83;81.38
18500;BME280;9379;52.134;11.576;2023-12-04T11:28:00;100882.28;;;1.72;80.92
18500;BME280;9379;52.134;11.576;2023-12-04T11:30:28;100879.31;;;2.16;80.85
18500;BME280;9379;52.134;11.576;2023-12-04T11:32:55;100872.88;;;2.04;80.93
18500;BME280;9379;52.134;11.576;2023-12-04T11:35:25;100870.44;;;2.19;81.00
18500;BME280;9379;52.134;11.576;2023-12-04T11:37:53;100863.44;;;2.37;80.37
18500;BME280;9379;52.134;11.576;2023-12-04T11:40:21;100867.19;;;2.66;78.75
18500;BME280;9379;52.134;11.576;2023-12-04T11:42:48;100855.66;;;2.70;78.88
18500;BME280;9379;52.134;11.576;2023-12-04T11:45:18;100853.63;;;2.40;79.85
18500;BME280;9379;52.134;11.576;2023-12-04T11:47:49;100855.44;;;2.22;79.78
18500;BME280;9379;52.134;11.576;2023-12-04T11:50:17;100853.09;;;2.16;80.18
18500;BME280;9379;52.134;11.576;2023-12-04T11:52:45;100849.84;;;2.28;80.75
18500;BME280;9379;52.134;11.576;2023-12-04T11:55:16;100844.13;;;1.67;81.43
18500;BME280;9379;52.134;11.576;2023-12-04T11:57:44;100843.78;;;2.11;81.16
18500;BME280;9379;52.134;11.576;2023-12-04T12:00:20;100846.06;;;2.51;80.61
18500;BME280;9379;52.134;11.576;2023-12-04T12:03:00;100835.97;;;2.09;81.10
18500;BME280;9379;52.134;11.576;2023-12-04T12:05:28;100830.06;;;2.23;81.06
18500;BME280;9379;52.134;11.576;2023-12-04T12:08:00;100830.53;;;1.95;81.36
18500;BME280;9379;52.134;11.576;2023-12-04T12:10:27;100819.00;;;1.99;81.72
18500;BME280;9379;52.134;11.576;2023-12-04T12:12:56;100825.47;;;1.92;82.36
18500;BME280;9379;52.134;11.576;2023-12-04T12:15:23;100822.59;;;1.79;82.43
18500;BME280;9379;52.134;11.576;2023-12-04T12:17:50;100823.53;;;1.59;83.37
18500;BME280;9379;52.134;11.576;2023-12-04T12:20:17;100810.41;;;1.78;83.42
18500;BME280;9379;52.134;11.576;2023-12-04T12:22:48;100811.88;;;1.84;83.14
18500;BME280;9379;52.134;11.576;2023-12-04T12:25:15;100811.22;;;1.97;82.23
18500;BME280;9379;52.134;11.576;2023-12-04T12:27:43;100796.78;;;1.89;82.19
18500;BME280;9379;52.134;11.576;2023-12-04T12:30:13;100804.25;;;1.79;82.74
18500;BME280;9379;52.134;11.576;2023-12-04T12:32:40;100797.94;;;1.83;81.96
18500;BME280;9379;52.134;11.576;2023-12-04T12:35:07;100789.31;;;2.16;82.32
18500;BME280;9379;52.134;11.576;2023-12-04T12:37:35;100785.91;;;1.79;82.28
18500;BME280;9379;52.134;11.576;2023-12-04T12:40:04;100782.00;;;1.88;82.44
18500;BME280;9379;52.134;11.576;2023-12-04T12:42:35;100776.03;;;1.84;82.87
18500;BME280;9379;52.134;11.576;2023-12-04T12:45:04;100771.63;;;1.85;81.98
18500;BME280;9379;52.134;11.576;2023-12-04T12:47:32;100769.81;;;1.87;82.43
18500;BME280;9379;52.134;11.576;2023-12-04T12:50:00;100773.28;;;2.22;81.38
18500;BME280;9379;52.134;11.576;2023-12-04T12:52:28;100771.47;;;2.40;80.41
18500;BME280;9379;52.134;11.576;2023-12-04T12:54:55;100761.75;;;1.72;82.13
18500;BME280;9379;52.134;11.576;2023-12-04T12:57:22;100761.88;;;2.23;81.82
18500;BME280;9379;52.134;11.576;2023-12-04T12:59:50;100756.25;;;1.42;82.05
18500;BME280;9379;52.134;11.576;2023-12-04T13:02:19;100761.19;;;2.02;82.21
18500;BME280;9379;52.134;11.576;2023-12-04T13:04:48;100763.78;;;2.19;81.28
18500;BME280;9379;52.134;11.576;2023-12-04T13:07:15;100750.16;;;1.95;81.06